sensor_id;sensor_type;location;lat;lon;timestamp;P1;durP1;ratioP1;P2;durP2;ratioP2
16977;SDS011;8605;52.548;4.918;2023-01-16T00:00:12;10.77;;;6.30;;
16977;SDS011;8605;52.548;4.918;2023-01-16T00:05:15;11.17;;;5.70;;
16977;SDS011;8605;52.548;4.918;2023-01-16T00:10:18;10.20;;;5.10;;
16977;SDS011;8605;52.548;4.918;2023-01-16T00:15:23;9.33;;;4.70;;
16977;SDS011;8605;52.548;4.918;2023-01-16T00:20:26;11.00;;;6.03;;
16977;SDS011;8605;52.548;4.918;2023-01-16T00:25:29;6.60;;;4.53;;
16977;SDS011;8605;52.548;4.918;2023-01-16T00:30:33;9.43;;;5.43;;
16977;SDS011;8605;52.548;4.918;2023-01-16T00:35:36;11.37;;;6.90;;
16977;SDS011;8605;52.548;4.918;2023-01-16T00:40:40;9.77;;;6.00;;
16977;SDS011;8605;52.548;4.918;2023-01-16T00:45:44;7.93;;;5.03;;
16977;SDS011;8605;52.548;4.918;2023-01-16T00:50:47;9.90;;;5.93;;
16977;SDS011;8605;52.548;4.918;2023-01-16T00:55:50;10.80;;;6.20;;
16977;SDS011;8605;52.548;4.918;2023-01-16T01:00:55;8.20;;;4.93;;
16977;SDS011;8605;52.548;4.918;2023-01-16T01:05:58;12.77;;;6.73;;
16977;SDS011;8605;52.548;4.918;2023-01-16T01:11:05;14.33;;;6.90;;
16977;SDS011;8605;52.548;4.918;2023-01-16T01:16:10;7.93;;;5.30;;
16977;SDS011;8605;52.548;4.918;2023-01-16T01:21:13;10.27;;;6.10;;
16977;SDS011;8605;52.548;4.918;2023-01-16T01:26:17;14.47;;;5.83;;
16977;SDS011;8605;52.548;4.918;2023-01-16T01:31:21;15.90;;;6.27;;
16977;SDS011;8605;52.548;4.918;2023-01-16T01:36:24;13.10;;;5.40;;
16977;SDS011;8605;52.548;4.918;2023-01-16T01:41:27;9.47;;;5.70;;
16977;SDS011;8605;52.548;4.918;2023-01-16T01:46:33;8.97;;;5.50;;
16977;SDS011;8605;52.548;4.918;2023-01-16T01:51:42;11.77;;;6.60;;
16977;SDS011;8605;52.548;4.918;2023-01-16T01:56:46;12.43;;;6.23;;
16977;SDS011;8605;52.548;4.918;2023-01-16T02:01:52;10.03;;;6.50;;
16977;SDS011;8605;52.548;4.918;2023-01-16T02:06:55;13.03;;;7.17;;
16977;SDS011;8605;52.548;4.918;2023-01-16T02:12:00;14.33;;;7.43;;
16977;SDS011;8605;52.548;4.918;2023-01-16T02:17:08;13.30;;;7.20;;
16977;SDS011;8605;52.548;4.918;2023-01-16T02:28:09;14.17;;;6.63;;
16977;SDS011;8605;52.548;4.918;2023-01-16T02:33:24;16.97;;;8.97;;
16977;SDS011;8605;52.548;4.918;2023-01-16T02:38:35;15.23;;;7.53;;
16977;SDS011;8605;52.548;4.918;2023-01-16T02:43:46;19.83;;;8.83;;
16977;SDS011;8605;52.548;4.918;2023-01-16T02:48:56;18.97;;;9.67;;
16977;SDS011;8605;52.548;4.918;2023-01-16T02:54:07;13.70;;;6.80;;
16977;SDS011;8605;52.548;4.918;2023-01-16T02:59:13;14.17;;;8.47;;
16977;SDS011;8605;52.548;4.918;2023-01-16T03:09:55;16.03;;;7.47;;
16977;SDS011;8605;52.548;4.918;2023-01-16T03:15:07;14.83;;;8.67;;
16977;SDS011;8605;52.548;4.918;2023-01-16T03:20:15;10.90;;;6.87;;
16977;SDS011;8605;52.548;4.918;2023-01-16T03:25:28;18.73;;;8.47;;
16977;SDS011;8605;52.548;4.918;2023-01-16T03:30:38;11.90;;;6.93;;
16977;SDS011;8605;52.548;4.918;2023-01-16T03:35:50;17.80;;;9.53;;
16977;SDS011;8605;52.548;4.918;2023-01-16T03:40:56;14.87;;;8.70;;
16977;SDS011;8605;52.548;4.918;2023-01-16T03:46:04;18.67;;;9.53;;
16977;SDS011;8605;52.548;4.918;2023-01-16T03:51:12;14.70;;;7.13;;
16977;SDS011;8605;52.548;4.918;2023-01-16T03:56:19;14.37;;;8.07;;
16977;SDS011;8605;52.548;4.918;2023-01-16T04:01:25;13.37;;;6.70;;
16977;SDS011;8605;52.548;4.918;2023-01-16T04:06:33;14.90;;;8.30;;
16977;SDS011;8605;52.548;4.918;2023-01-16T04:11:39;14.17;;;7.13;;
16977;SDS011;8605;52.548;4.918;2023-01-16T04:16:42;21.20;;;8.73;;
16977;SDS011;8605;52.548;4.918;2023-01-16T04:21:47;15.93;;;8.07;;
16977;SDS011;8605;52.548;4.918;2023-01-16T04:26:50;13.30;;;7.60;;
16977;SDS011;8605;52.548;4.918;2023-01-16T04:31:53;18.13;;;8.07;;
16977;SDS011;8605;52.548;4.918;2023-01-16T04:36:57;14.60;;;6.77;;
16977;SDS011;8605;52.548;4.918;2023-01-16T04:42:00;16.60;;;7.97;;
16977;SDS011;8605;52.548;4.918;2023-01-16T04:47:03;17.77;;;5.30;;
16977;SDS011;8605;52.548;4.918;2023-01-16T04:52:08;13.07;;;5.80;;
16977;SDS011;8605;52.548;4.918;2023-01-16T04:57:11;11.03;;;5.07;;
16977;SDS011;8605;52.548;4.918;2023-01-16T05:02:14;11.37;;;4.70;;
16977;SDS011;8605;52.548;4.918;2023-01-16T05:07:18;8.00;;;3.93;;
16977;SDS011;8605;52.548;4.918;2023-01-16T05:12:21;9.37;;;3.87;;
16977;SDS011;8605;52.548;4.918;2023-01-16T05:17:24;6.87;;;4.53;;
16977;SDS011;8605;52.548;4.918;2023-01-16T05:22:29;7.83;;;4.73;;
16977;SDS011;8605;52.548;4.918;2023-01-16T05:27:32;7.20;;;3.17;;
16977;SDS011;8605;52.548;4.918;2023-01-16T05:32:35;8.00;;;2.90;;
16977;SDS011;8605;52.548;4.918;2023-01-16T05:37:39;7.57;;;2.90;;
16977;SDS011;8605;52.548;4.918;2023-01-16T05:43:04;4.13;;;2.50;;
16977;SDS011;8605;52.548;4.918;2023-01-16T05:48:07;2.77;;;2.20;;
16977;SDS011;8605;52.548;4.918;2023-01-16T05:53:12;2.93;;;1.83;;
16977;SDS011;8605;52.548;4.918;2023-01-16T05:58:15;7.90;;;2.80;;
16977;SDS011;8605;52.548;4.918;2023-01-16T06:03:18;5.37;;;2.03;;
16977;SDS011;8605;52.548;4.918;2023-01-16T06:08:24;4.30;;;1.63;;
16977;SDS011;8605;52.548;4.918;2023-01-16T06:13:27;3.30;;;1.80;;
16977;SDS011;8605;52.548;4.918;2023-01-16T06:18:30;3.97;;;1.93;;
16977;SDS011;8605;52.548;4.918;2023-01-16T06:23:34;3.97;;;1.93;;
16977;SDS011;8605;52.548;4.918;2023-01-16T06:28:37;5.80;;;1.77;;
16977;SDS011;8605;52.548;4.918;2023-01-16T06:33:40;4.40;;;1.90;;
16977;SDS011;8605;52.548;4.918;2023-01-16T06:38:45;4.50;;;1.77;;
16977;SDS011;8605;52.548;4.918;2023-01-16T06:43:48;5.80;;;2.60;;
16977;SDS011;8605;52.548;4.918;2023-01-16T06:48:52;3.97;;;1.70;;
16977;SDS011;8605;52.548;4.918;2023-01-16T06:53:57;5.27;;;1.93;;
16977;SDS011;8605;52.548;4.918;2023-01-16T06:58:59;8.20;;;2.47;;
16977;SDS011;8605;52.548;4.918;2023-01-16T07:04:02;2.37;;;1.57;;
16977;SDS011;8605;52.548;4.918;2023-01-16T07:09:11;4.27;;;2.10;;
16977;SDS011;8605;52.548;4.918;2023-01-16T07:14:14;1.57;;;1.47;;
16977;SDS011;8605;52.548;4.918;2023-01-16T07:19:34;7.40;;;2.53;;
16977;SDS011;8605;52.548;4.918;2023-01-16T07:24:56;4.83;;;2.20;;
16977;SDS011;8605;52.548;4.918;2023-01-16T07:30:00;5.43;;;2.17;;
16977;SDS011;8605;52.548;4.918;2023-01-16T07:35:03;4.13;;;1.90;;
16977;SDS011;8605;52.548;4.918;2023-01-16T07:40:09;7.93;;;2.37;;
16977;SDS011;8605;52.548;4.918;2023-01-16T07:45:13;5.63;;;2.30;;
16977;SDS011;8605;52.548;4.918;2023-01-16T07:50:18;4.87;;;2.03;;
16977;SDS011;8605;52.548;4.918;2023-01-16T07:55:25;8.87;;;2.00;;
16977;SDS011;8605;52.548;4.918;2023-01-16T08:00:28;5.07;;;1.60;;
16977;SDS011;8605;52.548;4.918;2023-01-16T08:05:31;8.77;;;2.00;;
16977;SDS011;8605;52.548;4.918;2023-01-16T08:10:38;2.60;;;1.60;;
16977;SDS011;8605;52.548;4.918;2023-01-16T08:15:40;3.70;;;1.20;;
16977;SDS011;8605;52.548;4.918;2023-01-16T08:20:43;4.83;;;1.50;;
16977;SDS011;8605;52.548;4.918;2023-01-16T08:25:50;2.97;;;1.70;;
16977;SDS011;8605;52.548;4.918;2023-01-16T08:30:54;4.90;;;1.70;;
16977;SDS011;8605;52.548;4.918;2023-01-16T08:36:05;3.00;;;2.40;;
16977;SDS011;8605;52.548;4.918;2023-01-16T08:41:10;3.27;;;1.97;;
16977;SDS011;8605;52.548;4.918;2023-01-16T08:46:27;2.80;;;1.77;;
16977;SDS011;8605;52.548;4.918;2023-01-16T08:51:48;2.80;;;1.70;;
16977;SDS011;8605;52.548;4.918;2023-01-16T08:56:55;1.73;;;1.57;;
16977;SDS011;8605;52.548;4.918;2023-01-16T09:01:59;2.30;;;1.70;;
16977;SDS011;8605;52.548;4.918;2023-01-16T09:07:03;3.20;;;2.00;;
16977;SDS011;8605;52.548;4.918;2023-01-16T09:12:10;3.80;;;2.80;;
16977;SDS011;8605;52.548;4.918;2023-01-16T09:17:31;1.63;;;1.40;;
16977;SDS011;8605;52.548;4.918;2023-01-16T09:22:37;2.53;;;1.80;;
16977;SDS011;8605;52.548;4.918;2023-01-16T09:27:45;6.37;;;3.43;;
16977;SDS011;8605;52.548;4.918;2023-01-16T09:32:49;8.00;;;5.27;;
16977;SDS011;8605;52.548;4.918;2023-01-16T09:37:52;2.80;;;2.43;;
16977;SDS011;8605;52.548;4.918;2023-01-16T09:43:01;5.20;;;2.83;;
16977;SDS011;8605;52.548;4.918;2023-01-16T09:48:28;11.73;;;7.07;;
16977;SDS011;8605;52.548;4.918;2023-01-16T09:53:35;13.47;;;6.07;;
16977;SDS011;8605;52.548;4.918;2023-01-16T09:59:02;5.43;;;2.60;;
16977;SDS011;8605;52.548;4.918;2023-01-16T10:04:13;4.07;;;2.53;;
16977;SDS011;8605;52.548;4.918;2023-01-16T10:09:23;3.17;;;2.13;;
16977;SDS011;8605;52.548;4.918;2023-01-16T10:14:40;4.23;;;2.10;;
16977;SDS011;8605;52.548;4.918;2023-01-16T10:19:59;7.77;;;2.90;;
16977;SDS011;8605;52.548;4.918;2023-01-16T10:25:14;3.67;;;2.63;;
16977;SDS011;8605;52.548;4.918;2023-01-16T10:30:23;7.87;;;2.93;;
16977;SDS011;8605;52.548;4.918;2023-01-16T10:35:29;10.57;;;4.60;;
16977;SDS011;8605;52.548;4.918;2023-01-16T10:40:39;7.40;;;4.20;;
16977;SDS011;8605;52.548;4.918;2023-01-16T10:45:46;5.87;;;3.17;;
16977;SDS011;8605;52.548;4.918;2023-01-16T10:51:07;5.00;;;3.47;;
16977;SDS011;8605;52.548;4.918;2023-01-16T10:56:13;5.03;;;2.97;;
16977;SDS011;8605;52.548;4.918;2023-01-16T11:01:18;2.97;;;2.60;;
16977;SDS011;8605;52.548;4.918;2023-01-16T11:06:23;3.67;;;2.40;;
16977;SDS011;8605;52.548;4.918;2023-01-16T11:11:30;5.03;;;3.23;;
16977;SDS011;8605;52.548;4.918;2023-01-16T11:16:57;4.07;;;2.77;;
16977;SDS011;8605;52.548;4.918;2023-01-16T11:22:33;1.80;;;1.70;;
16977;SDS011;8605;52.548;4.918;2023-01-16T11:27:42;3.17;;;2.13;;
16977;SDS011;8605;52.548;4.918;2023-01-16T11:32:51;3.33;;;1.47;;
16977;SDS011;8605;52.548;4.918;2023-01-16T11:37:56;2.60;;;1.57;;
16977;SDS011;8605;52.548;4.918;2023-01-16T11:43:06;1.10;;;1.00;;
16977;SDS011;8605;52.548;4.918;2023-01-16T11:48:28;1.37;;;1.00;;
16977;SDS011;8605;52.548;4.918;2023-01-16T11:53:42;1.23;;;1.00;;
16977;SDS011;8605;52.548;4.918;2023-01-16T11:58:50;3.23;;;0.80;;
16977;SDS011;8605;52.548;4.918;2023-01-16T12:04:09;1.03;;;0.77;;
16977;SDS011;8605;52.548;4.918;2023-01-16T12:09:19;2.00;;;0.93;;
16977;SDS011;8605;52.548;4.918;2023-01-16T12:14:36;1.97;;;1.57;;
16977;SDS011;8605;52.548;4.918;2023-01-16T12:19:52;1.53;;;1.20;;
16977;SDS011;8605;52.548;4.918;2023-01-16T12:25:02;1.40;;;1.03;;
16977;SDS011;8605;52.548;4.918;2023-01-16T12:30:16;2.50;;;1.37;;
16977;SDS011;8605;52.548;4.918;2023-01-16T12:35:33;2.77;;;1.53;;
16977;SDS011;8605;52.548;4.918;2023-01-16T12:41:02;1.30;;;1.20;;
16977;SDS011;8605;52.548;4.918;2023-01-16T12:46:38;1.93;;;1.07;;
16977;SDS011;8605;52.548;4.918;2023-01-16T12:51:50;2.00;;;1.80;;
16977;SDS011;8605;52.548;4.918;2023-01-16T12:57:05;4.03;;;1.57;;
16977;SDS011;8605;52.548;4.918;2023-01-16T13:02:18;3.03;;;1.60;;
16977;SDS011;8605;52.548;4.918;2023-01-16T13:07:31;2.37;;;2.00;;
16977;SDS011;8605;52.548;4.918;2023-01-16T13:12:36;1.60;;;1.23;;
16977;SDS011;8605;52.548;4.918;2023-01-16T13:17:58;3.37;;;1.90;;
16977;SDS011;8605;52.548;4.918;2023-01-16T13:23:08;2.00;;;1.70;;
16977;SDS011;8605;52.548;4.918;2023-01-16T13:28:18;1.77;;;1.60;;
16977;SDS011;8605;52.548;4.918;2023-01-16T13:33:27;3.87;;;1.70;;
16977;SDS011;8605;52.548;4.918;2023-01-16T13:38:37;2.30;;;1.87;;
16977;SDS011;8605;52.548;4.918;2023-01-16T13:43:45;1.70;;;1.40;;
16977;SDS011;8605;52.548;4.918;2023-01-16T13:49:11;3.07;;;2.77;;
16977;SDS011;8605;52.548;4.918;2023-01-16T13:54:27;2.67;;;1.90;;
16977;SDS011;8605;52.548;4.918;2023-01-16T13:59:41;2.73;;;1.83;;
16977;SDS011;8605;52.548;4.918;2023-01-16T14:10:38;3.50;;;1.73;;
16977;SDS011;8605;52.548;4.918;2023-01-16T14:15:47;2.70;;;2.00;;
16977;SDS011;8605;52.548;4.918;2023-01-16T14:21:16;2.33;;;1.33;;
16977;SDS011;8605;52.548;4.918;2023-01-16T14:26:37;2.50;;;1.83;;
16977;SDS011;8605;52.548;4.918;2023-01-16T14:31:44;1.97;;;1.60;;
16977;SDS011;8605;52.548;4.918;2023-01-16T14:36:58;2.70;;;1.83;;
16977;SDS011;8605;52.548;4.918;2023-01-16T14:42:07;2.80;;;1.87;;
16977;SDS011;8605;52.548;4.918;2023-01-16T14:47:31;1.73;;;1.33;;
16977;SDS011;8605;52.548;4.918;2023-01-16T14:53:04;2.17;;;1.43;;
16977;SDS011;8605;52.548;4.918;2023-01-16T14:58:38;3.53;;;2.10;;
16977;SDS011;8605;52.548;4.918;2023-01-16T15:03:44;2.17;;;1.50;;
16977;SDS011;8605;52.548;4.918;2023-01-16T15:08:48;2.50;;;1.67;;
16977;SDS011;8605;52.548;4.918;2023-01-16T15:14:03;2.13;;;1.83;;
16977;SDS011;8605;52.548;4.918;2023-01-16T15:19:24;1.37;;;1.23;;
16977;SDS011;8605;52.548;4.918;2023-01-16T15:24:46;3.10;;;2.10;;
16977;SDS011;8605;52.548;4.918;2023-01-16T15:29:54;11.87;;;3.07;;
16977;SDS011;8605;52.548;4.918;2023-01-16T15:35:08;7.00;;;4.33;;
16977;SDS011;8605;52.548;4.918;2023-01-16T15:40:21;11.37;;;5.67;;
16977;SDS011;8605;52.548;4.918;2023-01-16T15:45:29;8.57;;;4.60;;
16977;SDS011;8605;52.548;4.918;2023-01-16T15:50:53;5.70;;;3.43;;
16977;SDS011;8605;52.548;4.918;2023-01-16T15:55:59;6.63;;;3.97;;
16977;SDS011;8605;52.548;4.918;2023-01-16T16:01:05;6.10;;;3.40;;
16977;SDS011;8605;52.548;4.918;2023-01-16T16:06:08;5.90;;;3.30;;
16977;SDS011;8605;52.548;4.918;2023-01-16T16:11:14;5.13;;;3.33;;
16977;SDS011;8605;52.548;4.918;2023-01-16T16:16:41;3.67;;;2.30;;
16977;SDS011;8605;52.548;4.918;2023-01-16T16:22:19;2.13;;;1.93;;
16977;SDS011;8605;52.548;4.918;2023-01-16T16:27:40;2.30;;;1.53;;
16977;SDS011;8605;52.548;4.918;2023-01-16T16:32:45;2.23;;;1.20;;
16977;SDS011;8605;52.548;4.918;2023-01-16T16:37:50;2.60;;;2.00;;
16977;SDS011;8605;52.548;4.918;2023-01-16T16:42:54;5.07;;;2.87;;
16977;SDS011;8605;52.548;4.918;2023-01-16T16:53:29;4.30;;;2.90;;
16977;SDS011;8605;52.548;4.918;2023-01-16T16:58:31;4.90;;;2.97;;
16977;SDS011;8605;52.548;4.918;2023-01-16T17:03:36;9.23;;;3.73;;
16977;SDS011;8605;52.548;4.918;2023-01-16T17:08:39;6.90;;;3.70;;
16977;SDS011;8605;52.548;4.918;2023-01-16T17:13:46;3.37;;;2.73;;
16977;SDS011;8605;52.548;4.918;2023-01-16T17:18:50;4.80;;;3.07;;
16977;SDS011;8605;52.548;4.918;2023-01-16T17:23:57;5.97;;;2.83;;
16977;SDS011;8605;52.548;4.918;2023-01-16T17:29:02;3.80;;;2.33;;
16977;SDS011;8605;52.548;4.918;2023-01-16T17:39:42;2.23;;;1.47;;
16977;SDS011;8605;52.548;4.918;2023-01-16T17:44:45;1.40;;;0.90;;
16977;SDS011;8605;52.548;4.918;2023-01-16T17:50:09;2.30;;;1.50;;
16977;SDS011;8605;52.548;4.918;2023-01-16T17:55:24;1.00;;;0.80;;
16977;SDS011;8605;52.548;4.918;2023-01-16T18:00:44;0.90;;;0.83;;
16977;SDS011;8605;52.548;4.918;2023-01-16T18:05:51;1.60;;;1.10;;
16977;SDS011;8605;52.548;4.918;2023-01-16T18:10:54;1.37;;;1.17;;
16977;SDS011;8605;52.548;4.918;2023-01-16T18:15:56;1.83;;;0.93;;
16977;SDS011;8605;52.548;4.918;2023-01-16T18:21:18;1.00;;;0.90;;
16977;SDS011;8605;52.548;4.918;2023-01-16T18:26:45;1.37;;;1.27;;
16977;SDS011;8605;52.548;4.918;2023-01-16T18:31:48;1.80;;;1.10;;
16977;SDS011;8605;52.548;4.918;2023-01-16T18:37:06;1.30;;;0.60;;
16977;SDS011;8605;52.548;4.918;2023-01-16T18:42:11;4.90;;;2.37;;
16977;SDS011;8605;52.548;4.918;2023-01-16T18:47:32;1.97;;;1.17;;
16977;SDS011;8605;52.548;4.918;2023-01-16T18:53:02;2.47;;;1.10;;
16977;SDS011;8605;52.548;4.918;2023-01-16T18:58:22;2.37;;;0.97;;
16977;SDS011;8605;52.548;4.918;2023-01-16T19:03:43;2.27;;;0.83;;
16977;SDS011;8605;52.548;4.918;2023-01-16T19:08:47;2.73;;;1.73;;
16977;SDS011;8605;52.548;4.918;2023-01-16T19:13:52;2.20;;;0.73;;
16977;SDS011;8605;52.548;4.918;2023-01-16T19:18:54;2.87;;;1.53;;
16977;SDS011;8605;52.548;4.918;2023-01-16T19:24:08;1.20;;;0.77;;
16977;SDS011;8605;52.548;4.918;2023-01-16T19:29:13;3.27;;;0.90;;
16977;SDS011;8605;52.548;4.918;2023-01-16T19:34:17;0.80;;;0.80;;
16977;SDS011;8605;52.548;4.918;2023-01-16T19:39:21;0.93;;;0.60;;
16977;SDS011;8605;52.548;4.918;2023-01-16T19:44:25;1.73;;;0.80;;
16977;SDS011;8605;52.548;4.918;2023-01-16T19:49:45;2.93;;;1.73;;
16977;SDS011;8605;52.548;4.918;2023-01-16T19:54:49;1.67;;;0.77;;
16977;SDS011;8605;52.548;4.918;2023-01-16T19:59:52;2.07;;;1.47;;
16977;SDS011;8605;52.548;4.918;2023-01-16T20:04:55;6.77;;;1.43;;
16977;SDS011;8605;52.548;4.918;2023-01-16T20:09:59;3.13;;;2.83;;
16977;SDS011;8605;52.548;4.918;2023-01-16T20:15:06;6.77;;;2.13;;
16977;SDS011;8605;52.548;4.918;2023-01-16T20:20:12;3.37;;;1.60;;
16977;SDS011;8605;52.548;4.918;2023-01-16T20:25:16;0.60;;;0.60;;
16977;SDS011;8605;52.548;4.918;2023-01-16T20:30:19;2.63;;;1.00;;
16977;SDS011;8605;52.548;4.918;2023-01-16T20:35:36;5.57;;;2.03;;
16977;SDS011;8605;52.548;4.918;2023-01-16T20:40:40;5.57;;;1.77;;
16977;SDS011;8605;52.548;4.918;2023-01-16T20:45:43;3.40;;;1.30;;
16977;SDS011;8605;52.548;4.918;2023-01-16T20:50:56;2.53;;;1.13;;
16977;SDS011;8605;52.548;4.918;2023-01-16T20:56:07;3.67;;;2.20;;
16977;SDS011;8605;52.548;4.918;2023-01-16T21:01:10;4.97;;;1.27;;
16977;SDS011;8605;52.548;4.918;2023-01-16T21:06:13;4.07;;;0.90;;
16977;SDS011;8605;52.548;4.918;2023-01-16T21:11:17;1.30;;;1.20;;
16977;SDS011;8605;52.548;4.918;2023-01-16T21:16:37;1.40;;;0.70;;
16977;SDS011;8605;52.548;4.918;2023-01-16T21:21:58;6.97;;;0.90;;
16977;SDS011;8605;52.548;4.918;2023-01-16T21:27:02;2.30;;;1.80;;
16977;SDS011;8605;52.548;4.918;2023-01-16T21:32:05;0.70;;;0.40;;
16977;SDS011;8605;52.548;4.918;2023-01-16T21:37:08;1.90;;;0.87;;
16977;SDS011;8605;52.548;4.918;2023-01-16T21:42:13;2.67;;;1.20;;
16977;SDS011;8605;52.548;4.918;2023-01-16T21:47:33;4.70;;;0.63;;
16977;SDS011;8605;52.548;4.918;2023-01-16T21:52:36;5.00;;;0.70;;
16977;SDS011;8605;52.548;4.918;2023-01-16T21:58:05;1.73;;;1.10;;
16977;SDS011;8605;52.548;4.918;2023-01-16T22:03:08;10.50;;;1.37;;
16977;SDS011;8605;52.548;4.918;2023-01-16T22:08:11;6.77;;;1.23;;
16977;SDS011;8605;52.548;4.918;2023-01-16T22:13:15;2.83;;;0.90;;
16977;SDS011;8605;52.548;4.918;2023-01-16T22:18:35;4.73;;;1.17;;
16977;SDS011;8605;52.548;4.918;2023-01-16T22:23:38;6.17;;;1.33;;
16977;SDS011;8605;52.548;4.918;2023-01-16T22:28:49;6.83;;;1.10;;
16977;SDS011;8605;52.548;4.918;2023-01-16T22:33:52;3.87;;;1.17;;
16977;SDS011;8605;52.548;4.918;2023-01-16T22:38:54;5.17;;;1.50;;
16977;SDS011;8605;52.548;4.918;2023-01-16T22:43:59;5.57;;;3.70;;
16977;SDS011;8605;52.548;4.918;2023-01-16T22:49:19;2.03;;;1.23;;
16977;SDS011;8605;52.548;4.918;2023-01-16T22:54:22;2.87;;;1.37;;
16977;SDS011;8605;52.548;4.918;2023-01-16T22:59:27;6.73;;;2.33;;
16977;SDS011;8605;52.548;4.918;2023-01-16T23:04:30;2.53;;;0.87;;
16977;SDS011;8605;52.548;4.918;2023-01-16T23:09:33;3.07;;;1.03;;
16977;SDS011;8605;52.548;4.918;2023-01-16T23:14:38;6.37;;;1.07;;
16977;SDS011;8605;52.548;4.918;2023-01-16T23:19:40;4.73;;;1.03;;
16977;SDS011;8605;52.548;4.918;2023-01-16T23:24:45;2.13;;;0.83;;
16977;SDS011;8605;52.548;4.918;2023-01-16T23:29:49;4.90;;;1.00;;
16977;SDS011;8605;52.548;4.918;2023-01-16T23:34:52;1.13;;;0.50;;
16977;SDS011;8605;52.548;4.918;2023-01-16T23:39:54;0.27;;;0.27;;
16977;SDS011;8605;52.548;4.918;2023-01-16T23:45:00;1.17;;;0.50;;
16977;SDS011;8605;52.548;4.918;2023-01-16T23:50:07;10.33;;;0.73;;
16977;SDS011;8605;52.548;4.918;2023-01-16T23:55:11;4.33;;;1.00;;
